Time;durP1;ratioP1;P1;durP2;ratioP2;P2;SDS_P1;SDS_P2;PMS_P1;PMS_P2;Temp;Humidity;BMP_temperature;BMP_pressure;BME280_temperature;BME280_humidity;BME280_pressure;Samples;Min_cycle;Max_cycle;Signal;HPM_P1;HPM_P2
2023/04/28 00:00:10;;;;;;;3.28;2.70;;;;;;;7.75;45.22;95115.28;5074283;28;20189;-72
2023/04/28 00:02:38;;;;;;;4.43;3.15;;;;;;;7.69;45.23;95122.91;5074371;28;20283;-71
2023/04/28 00:05:09;;;;;;;3.22;2.60;;;;;;;7.66;45.58;95116.16;5075296;28;20188;-72
2023/04/28 00:07:41;;;;;;;3.67;3.38;;;;;;;7.67;45.72;95119.69;5074832;28;20221;-72
2023/04/28 00:10:12;;;;;;;3.47;3.17;;;;;;;7.63;45.63;95127.00;5074672;28;20197;-72
2023/04/28 00:12:42;;;;;;;3.50;2.72;;;;;;;7.59;45.43;95121.38;5074584;28;20193;-72
2023/04/28 00:15:14;;;;;;;3.47;2.97;;;;;;;7.60;46.01;95120.22;5078054;28;20209;-72
2023/04/28 00:17:45;;;;;;;4.45;3.00;;;;;;;7.60;45.72;95125.72;5079103;28;20228;-73
2023/04/28 00:20:12;;;;;;;3.08;2.78;;;;;;;7.58;45.73;95119.75;5079193;28;20185;-72
2023/04/28 00:22:43;;;;;;;3.17;2.88;;;;;;;7.55;46.06;95111.38;5078914;28;20193;-72
2023/04/28 00:25:12;;;;;;;3.20;2.97;;;;;;;7.54;46.06;95120.75;5078686;28;20213;-72
2023/04/28 00:27:43;;;;;;;2.60;2.40;;;;;;;7.51;46.17;95119.47;5078207;28;20211;-72
2023/04/28 00:30:12;;;;;;;2.70;2.50;;;;;;;7.49;46.08;95119.00;5077700;28;20632;-72
2023/04/28 00:32:40;;;;;;;2.85;2.65;;;;;;;7.48;46.49;95122.91;5077102;28;20205;-72
2023/04/28 00:35:08;;;;;;;3.22;2.58;;;;;;;7.46;46.40;95120.47;5077831;28;20227;-71
2023/04/28 00:37:40;;;;;;;5.90;2.70;;;;;;;7.42;46.53;95126.97;5077849;28;20617;-71
2023/04/28 00:40:12;;;;;;;5.65;2.70;;;;;;;7.39;46.43;95125.66;5077733;28;20510;-71
2023/04/28 00:42:43;;;;;;;2.75;2.50;;;;;;;7.34;46.59;95136.84;5078827;28;20247;-70
2023/04/28 00:45:12;;;;;;;3.03;2.60;;;;;;;7.32;46.79;95132.81;5077546;28;20239;-71
2023/04/28 00:47:41;;;;;;;2.90;2.58;;;;;;;7.29;47.09;95133.47;5077409;28;20193;-71
2023/04/28 00:50:09;;;;;;;2.97;2.78;;;;;;;7.28;47.27;95137.34;5077472;28;20197;-71
2023/04/28 00:52:38;;;;;;;3.00;2.67;;;;;;;7.26;47.39;95139.59;5077187;28;20208;-71
2023/04/28 00:55:06;;;;;;;3.80;2.75;;;;;;;7.23;47.23;95136.41;5077578;28;20209;-71
2023/04/28 00:57:40;;;;;;;3.22;2.70;;;;;;;7.23;47.56;95138.34;5077278;28;20236;-71
2023/04/28 01:00:09;;;;;;;2.67;2.47;;;;;;;7.19;48.10;95138.22;5078035;28;20632;-71
2023/04/28 01:02:37;;;;;;;3.45;2.60;;;;;;;7.15;47.40;95141.91;5077167;28;20204;-72
2023/04/28 01:05:09;;;;;;;2.63;2.33;;;;;;;7.11;47.53;95147.25;5077418;28;20192;-71
2023/04/28 01:07:40;;;;;;;2.97;2.78;;;;;;;7.11;47.90;95139.03;5076975;28;20636;-71
2023/04/28 01:10:08;;;;;;;2.67;2.47;;;;;;;7.07;47.84;95148.25;5076968;28;20189;-71
2023/04/28 01:12:39;;;;;;;2.90;2.70;;;;;;;7.04;48.99;95144.22;5077331;28;20189;-71
2023/04/28 01:15:08;;;;;;;2.85;2.65;;;;;;;7.02;48.54;95143.75;5077243;28;20224;-71
2023/04/28 01:17:35;;;;;;;2.90;2.65;;;;;;;6.98;48.46;95145.56;5076785;28;20618;-71
2023/04/28 01:20:05;;;;;;;3.92;2.80;;;;;;;6.96;48.72;95147.81;5077078;28;20197;-72
2023/04/28 01:22:34;;;;;;;4.65;2.60;;;;;;;6.98;49.06;95140.06;5077002;28;20203;-72
2023/04/28 01:25:08;;;;;;;2.95;2.65;;;;;;;6.97;48.53;95152.16;5076914;28;20220;-71
2023/04/28 01:27:36;;;;;;;2.85;2.50;;;;;;;6.96;48.44;95142.31;5076327;28;20201;-71
2023/04/28 01:30:06;;;;;;;3.80;2.83;;;;;;;6.96;47.84;95147.81;5076941;28;20197;-72
2023/04/28 01:32:33;;;;;;;2.95;2.70;;;;;;;6.92;47.96;95144.91;5076668;28;20627;-71
2023/04/28 01:35:03;;;;;;;3.92;2.92;;;;;;;6.90;47.83;95143.63;5077066;28;20220;-71
2023/04/28 01:37:30;;;;;;;3.45;2.50;;;;;;;6.88;47.95;95143.16;5076483;28;20628;-71
2023/04/28 01:40:02;;;;;;;2.65;2.45;;;;;;;6.89;48.51;95147.50;5076786;28;20242;-71
2023/04/28 01:42:32;;;;;;;3.38;2.70;;;;;;;6.87;48.70;95150.59;5076712;28;20236;-71
2023/04/28 01:44:59;;;;;;;3.00;2.60;;;;;;;6.86;48.85;95148.97;5076480;28;20201;-71
2023/04/28 01:47:26;;;;;;;3.35;2.70;;;;;;;6.85;48.45;95154.78;5076315;28;20205;-71
2023/04/28 01:49:54;;;;;;;3.58;2.65;;;;;;;6.83;48.07;95152.38;5076407;28;20200;-71
2023/04/28 01:52:23;;;;;;;3.13;2.75;;;;;;;6.80;47.93;95152.22;5076335;28;20201;-71
2023/04/28 01:54:49;;;;;;;2.90;2.70;;;;;;;6.75;47.32;95145.78;5076043;28;20666;-71
2023/04/28 01:57:17;;;;;;;3.50;2.78;;;;;;;6.71;47.39;95155.75;5076085;28;20236;-71
2023/04/28 01:59:49;;;;;;;3.95;2.88;;;;;;;6.67;47.82;95154.00;5075990;28;20189;-71
2023/04/28 02:02:17;;;;;;;3.35;3.05;;;;;;;6.67;47.69;95154.00;5076210;28;20200;-71
2023/04/28 02:04:48;;;;;;;3.10;2.80;;;;;;;6.69;47.70;95149.03;5076442;28;20197;-71
2023/04/28 02:07:18;;;;;;;3.13;2.70;;;;;;;6.67;47.70;95149.31;5075967;28;20251;-71
2023/04/28 02:09:47;;;;;;;3.03;2.72;;;;;;;6.66;48.09;95155.16;5076129;28;20197;-71
2023/04/28 02:12:16;;;;;;;2.70;2.50;;;;;;;6.62;47.88;95159.69;5076281;28;20208;-71
2023/04/28 02:14:47;;;;;;;4.22;2.78;;;;;;;6.57;48.21;95157.88;5075805;28;20232;-72
2023/04/28 02:17:16;;;;;;;3.05;2.70;;;;;;;6.58;48.56;95161.47;5076108;28;20325;-71
2023/04/28 02:19:43;;;;;;;3.55;2.90;;;;;;;6.57;49.78;95151.59;5075554;28;20549;-71
2023/04/28 02:22:11;;;;;;;4.88;3.00;;;;;;;6.54;49.79;95172.25;5076364;28;20208;-71
2023/04/28 02:24:41;;;;;;;2.92;2.72;;;;;;;6.48;49.45;95166.13;5075834;28;20201;-71
2023/04/28 02:27:12;;;;;;;3.28;2.97;;;;;;;6.48;49.63;95166.13;5076064;28;20205;-70
2023/04/28 02:29:39;;;;;;;3.90;2.80;;;;;;;6.47;50.01;95169.22;5075666;28;20198;-70
2023/04/28 02:32:09;;;;;;;3.88;2.70;;;;;;;6.43;50.09;95173.72;5075363;28;20264;-70
2023/04/28 02:34:36;;;;;;;4.72;3.38;;;;;;;6.43;50.05;95176.47;5075289;28;20221;-70
2023/04/28 02:37:06;;;;;;;3.85;3.55;;;;;;;6.39;51.29;95173.56;5074774;28;20606;-71
2023/04/28 02:39:35;;;;;;;4.40;3.15;;;;;;;6.38;51.39;95166.47;5075517;28;20674;-70
2023/04/28 02:42:04;;;;;;;5.93;4.50;;;;;;;6.27;52.28;95167.91;5075919;28;20220;-70
2023/04/28 02:44:31;;;;;;;6.88;4.72;;;;;;;6.08;53.07;95172.94;5075894;28;20205;-71
2023/04/28 02:47:00;;;;;;;6.90;4.78;;;;;;;5.97;53.87;95175.97;5075129;28;20325;-71
2023/04/28 02:49:33;;;;;;;5.60;4.53;;;;;;;5.91;54.58;95182.69;5075944;28;20192;-70
2023/04/28 02:52:02;;;;;;;5.82;4.65;;;;;;;5.81;54.37;95177.56;5075245;28;20208;-71
2023/04/28 02:54:35;;;;;;;4.70;4.20;;;;;;;5.77;54.57;95182.84;5075052;28;20224;-70
2023/04/28 02:57:03;;;;;;;4.00;3.53;;;;;;;5.76;53.87;95180.41;5074768;28;20452;-70
2023/04/28 02:59:34;;;;;;;5.75;4.03;;;;;;;5.85;54.36;95186.72;5075096;28;20205;-70
2023/04/28 03:02:02;;;;;;;4.60;3.40;;;;;;;5.87;53.85;95189.94;5075778;28;20189;-70
2023/04/28 03:04:32;;;;;;;3.97;3.10;;;;;;;5.97;52.86;95195.13;5075135;28;20199;-70
2023/04/28 03:07:00;;;;;;;6.10;3.28;;;;;;;6.03;52.68;95202.09;5074779;28;20207;-69
2023/04/28 03:09:29;;;;;;;2.60;2.35;;;;;;;6.10;50.89;95198.03;5074995;28;20263;-70
2023/04/28 03:11:58;;;;;;;3.88;3.00;;;;;;;6.15;50.06;95192.41;5074633;28;20197;-70
2023/04/28 03:14:29;;;;;;;3.33;2.22;;;;;;;6.18;49.31;95202.75;5074733;28;20648;-70
2023/04/28 03:16:56;;;;;;;4.43;2.80;;;;;;;6.19;49.58;95194.19;5075118;28;20201;-69
2023/04/28 03:19:26;;;;;;;3.97;3.03;;;;;;;6.24;49.53;95201.44;5074835;28;20287;-69
2023/04/28 03:22:00;;;;;;;4.30;2.97;;;;;;;6.31;49.36;95204.50;5074566;28;20197;-69
2023/04/28 03:24:29;;;;;;;5.22;3.28;;;;;;;6.34;48.72;95203.84;5074512;28;20197;-69
2023/04/28 03:26:56;;;;;;;4.20;2.80;;;;;;;6.33;48.76;95209.66;5075299;28;20235;-70
2023/04/28 03:29:24;;;;;;;4.97;2.83;;;;;;;6.37;48.27;95219.66;5074731;28;20197;-70
2023/04/28 03:31:55;;;;;;;3.67;2.72;;;;;;;6.37;48.25;95225.13;5074667;28;20207;-70
2023/04/28 03:34:24;;;;;;;4.13;2.60;;;;;;;6.38;47.98;95228.66;5074800;28;20212;-70
2023/04/28 03:36:53;;;;;;;4.25;2.92;;;;;;;6.36;47.76;95231.75;5074310;28;20201;-70
2023/04/28 03:39:21;;;;;;;2.97;2.67;;;;;;;6.37;47.88;95240.75;5074691;28;20227;-69
2023/04/28 03:41:50;;;;;;;3.25;2.50;;;;;;;6.36;47.68;95239.16;5074170;28;20242;-70
2023/04/28 03:44:20;;;;;;;3.13;2.83;;;;;;;6.38;47.43;95234.94;5074664;28;20200;-69
2023/04/28 03:46:47;;;;;;;3.80;2.53;;;;;;;6.38;47.77;95237.69;5074212;28;20193;-69
2023/04/28 03:49:14;;;;;;;3.22;2.70;;;;;;;6.38;47.63;95240.44;5074267;28;20208;-69
2023/04/28 03:51:41;;;;;;;4.00;2.55;;;;;;;6.41;47.24;95242.53;5073956;28;20255;-69
2023/04/28 03:54:08;;;;;;;2.85;2.63;;;;;;;6.40;47.37;95249.16;5074297;28;20196;-70
2023/04/28 03:56:37;;;;;;;3.90;3.10;;;;;;;6.40;47.13;95253.81;5072970;28;20420;-74
2023/04/28 03:59:37;;;;;;;3.05;2.85;;;;;;;6.40;47.12;95251.09;5125846;27;20622;-72
2023/04/28 04:02:05;;;;;;;3.38;3.05;;;;;;;6.39;47.08;95252.19;5092493;28;20207;-73
2023/04/28 04:04:35;;;;;;;3.10;2.80;;;;;;;6.36;46.87;95261.88;5091902;28;20188;-73
2023/04/28 04:07:04;;;;;;;5.45;3.13;;;;;;;6.36;47.36;95252.88;5091592;28;20280;-73
2023/04/28 04:09:34;;;;;;;3.25;2.95;;;;;;;6.37;46.98;95262.69;5091472;28;20207;-72
2023/04/28 04:12:01;;;;;;;3.63;2.85;;;;;;;6.37;47.40;95260.75;5091570;28;20201;-73
2023/04/28 04:14:30;;;;;;;4.50;2.80;;;;;;;6.38;47.80;95261.53;5091928;28;20184;-73
2023/04/28 04:17:01;;;;;;;3.75;3.08;;;;;;;6.41;47.55;95266.38;5091957;28;20193;-73
2023/04/28 04:19:31;;;;;;;3.72;3.00;;;;;;;6.40;47.47;95260.09;5091122;28;20227;-75
2023/04/28 04:22:01;;;;;;;3.40;2.70;;;;;;;6.44;47.55;95268.50;5125269;28;20196;-72
2023/04/28 04:24:29;;;;;;;2.70;2.50;;;;;;;6.45;47.44;95270.91;5091628;28;20224;-72
2023/04/28 04:27:00;;;;;;;3.65;2.40;;;;;;;6.45;47.20;95279.13;5091585;28;20586;-72
2023/04/28 04:29:30;;;;;;;4.63;2.83;;;;;;;6.48;47.32;95280.41;5091347;28;20185;-72
2023/04/28 04:32:06;;;;;;;2.60;2.40;;;;;;;6.50;47.26;95280.91;5091256;28;20258;-72
2023/04/28 04:34:38;;;;;;;3.25;2.75;;;;;;;6.53;47.38;95282.97;5091195;28;20231;-72
2023/04/28 04:37:09;;;;;;;3.80;2.65;;;;;;;6.56;47.52;95282.34;5092082;28;20188;-72
2023/04/28 04:39:37;;;;;;;3.92;2.53;;;;;;;6.60;47.39;95277.03;5090994;28;20290;-72
2023/04/28 04:42:11;;;;;;;3.78;3.00;;;;;;;6.64;47.28;95286.22;5091677;28;20245;-72
2023/04/28 04:44:40;;;;;;;4.13;2.70;;;;;;;6.70;46.88;95290.41;5090906;28;20542;-72
2023/04/28 04:47:14;;;;;;;3.80;2.85;;;;;;;6.72;47.02;95288.16;5090755;28;20196;-72
2023/04/28 04:49:41;;;;;;;3.53;2.70;;;;;;;6.74;46.70;95291.38;5090401;28;20435;-73
2023/04/28 04:52:09;;;;;;;2.80;2.60;;;;;;;6.75;46.76;95299.28;5090916;28;20193;-71
2023/04/28 04:54:39;;;;;;;3.17;2.80;;;;;;;6.84;47.48;95298.47;5089367;28;20765;-70
2023/04/28 04:57:07;;;;;;;3.67;2.47;;;;;;;6.87;47.52;95298.63;5090273;28;20507;-72
2023/04/28 04:59:35;;;;;;;4.88;3.33;;;;;;;6.87;47.00;95301.38;5090593;28;20628;-71
2023/04/28 05:02:05;;;;;;;3.60;3.08;;;;;;;6.86;47.27;95302.53;5090926;28;20201;-72
2023/04/28 05:04:35;;;;;;;4.55;3.30;;;;;;;6.88;47.13;95299.44;5090568;28;20208;-72
2023/04/28 05:07:03;;;;;;;4.55;3.13;;;;;;;6.89;47.32;95304.59;5091765;28;20193;-73
2023/04/28 05:09:32;;;;;;;3.58;2.80;;;;;;;6.86;46.89;95308.00;5084845;28;20197;-71
2023/04/28 05:12:00;;;;;;;3.30;3.00;;;;;;;6.86;46.85;95313.47;5077210;28;20197;-74
2023/04/28 05:14:28;;;;;;;3.30;2.55;;;;;;;6.87;47.41;95314.28;5077185;28;20220;-74
2023/04/28 05:16:56;;;;;;;4.93;3.28;;;;;;;6.89;47.57;95312.81;5077198;28;20224;-73
2023/04/28 05:19:23;;;;;;;4.55;3.13;;;;;;;6.91;47.16;95313.31;5076602;28;20221;-73
2023/04/28 05:21:56;;;;;;;3.78;2.95;;;;;;;6.93;47.62;95313.78;5076886;28;20283;-73
2023/04/28 05:24:29;;;;;;;4.85;2.95;;;;;;;6.96;47.60;95317.81;5077387;28;20207;-74
2023/04/28 05:27:01;;;;;;;3.00;2.80;;;;;;;7.02;47.96;95315.72;5077686;28;20221;-74
2023/04/28 05:29:32;;;;;;;3.53;3.05;;;;;;;7.04;47.62;95311.50;5076900;28;20247;-73
2023/04/28 05:31:58;;;;;;;3.67;3.13;;;;;;;7.06;47.46;95309.25;5076457;28;20197;-72
2023/04/28 05:34:25;;;;;;;3.90;3.03;;;;;;;7.10;47.80;95314.91;5076917;28;20197;-71
2023/04/28 05:36:53;;;;;;;3.45;3.15;;;;;;;7.08;47.34;95307.00;5077002;28;20295;-72
2023/04/28 05:39:24;;;;;;;3.40;3.10;;;;;;;7.12;47.77;95307.97;5076519;28;20220;-71
2023/04/28 05:41:52;;;;;;;3.45;2.90;;;;;;;7.18;47.53;95305.84;5076571;28;20193;-72
2023/04/28 05:44:20;;;;;;;3.17;2.88;;;;;;;7.22;47.18;95310.34;5076336;28;20201;-72
2023/04/28 05:46:48;;;;;;;3.28;2.97;;;;;;;7.24;47.27;95301.81;5076669;28;20194;-72
2023/04/28 05:49:18;;;;;;;4.88;2.90;;;;;;;7.30;47.63;95313.41;5076561;28;20201;-72
2023/04/28 05:51:46;;;;;;;5.47;3.20;;;;;;;7.33;47.33;95310.81;5076142;28;20197;-74
2023/04/28 05:54:19;;;;;;;4.68;2.90;;;;;;;7.38;47.33;95309.88;5110456;28;20197;-70
2023/04/28 05:56:47;;;;;;;3.42;2.60;;;;;;;7.40;47.11;95316.63;5076627;28;20301;-70
2023/04/28 05:59:17;;;;;;;3.20;2.90;;;;;;;7.45;47.15;95315.66;5075691;28;20378;-71
2023/04/28 06:01:45;;;;;;;3.45;2.97;;;;;;;7.50;46.89;95315.47;5076060;28;20258;-71
2023/04/28 06:04:13;;;;;;;3.60;3.00;;;;;;;7.54;47.15;95313.69;5076640;28;20589;-71
2023/04/28 06:06:41;;;;;;;3.42;3.03;;;;;;;7.56;46.77;95314.16;5076200;28;20200;-71
2023/04/28 06:09:10;;;;;;;4.72;3.22;;;;;;;7.58;46.54;95314.63;5075805;28;20197;-71
2023/04/28 06:11:42;;;;;;;5.10;3.13;;;;;;;7.59;46.34;95307.19;5076007;28;20185;-70
2023/04/28 06:14:10;;;;;;;3.70;3.00;;;;;;;7.62;46.68;95317.53;5075852;28;20247;-71
2023/04/28 06:16:38;;;;;;;4.93;3.22;;;;;;;7.66;46.26;95310.25;5076306;28;20280;-71
2023/04/28 06:19:04;;;;;;;5.57;3.00;;;;;;;7.67;45.97;95312.69;5075751;28;20221;-70
2023/04/28 06:21:32;;;;;;;3.92;3.22;;;;;;;7.70;45.77;95313.97;5074487;28;20204;-75
2023/04/28 06:24:03;;;;;;;3.30;2.92;;;;;;;7.74;45.71;95314.91;5075699;28;20296;-74
2023/04/28 06:26:31;;;;;;;3.42;3.05;;;;;;;7.72;45.28;95319.91;5076441;28;20177;-74
2023/04/28 06:29:03;;;;;;;3.65;3.08;;;;;;;7.71;45.25;95321.88;5075193;28;20200;-74
2023/04/28 06:31:31;;;;;;;4.88;3.17;;;;;;;7.78;45.36;95323.31;5075405;28;20197;-74
2023/04/28 06:33:59;;;;;;;5.97;3.47;;;;;;;7.80;45.55;95321.00;5075086;28;20204;-74
2023/04/28 06:36:27;;;;;;;3.63;2.90;;;;;;;7.83;45.54;95315.69;5075699;28;20201;-74
2023/04/28 06:39:04;;;;;;;4.57;3.70;;;;;;;7.83;44.76;95312.13;5075305;28;20224;-74
2023/04/28 06:41:32;;;;;;;3.90;3.40;;;;;;;7.81;45.16;95309.72;5075168;28;20209;-73
2023/04/28 06:44:02;;;;;;;3.88;3.25;;;;;;;7.85;44.87;95302.44;5109225;28;20292;-73
2023/04/28 06:46:30;;;;;;;4.85;3.45;;;;;;;7.91;45.26;95309.34;5075565;28;20197;-73
2023/04/28 06:48:58;;;;;;;4.25;3.33;;;;;;;7.97;45.00;95315.47;5075124;28;20239;-73
2023/04/28 06:51:27;;;;;;;3.67;2.92;;;;;;;8.01;45.05;95308.16;5075154;28;20189;-73
2023/04/28 06:53:56;;;;;;;4.72;3.50;;;;;;;8.05;44.71;95317.34;5074766;28;20228;-74
2023/04/28 06:56:25;;;;;;;3.97;3.50;;;;;;;8.06;44.53;95308.00;5074962;28;20597;-74
2023/04/28 06:58:51;;;;;;;4.05;3.33;;;;;;;8.10;44.61;95305.41;5074674;28;20240;-73
2023/04/28 07:01:27;;;;;;;5.32;3.70;;;;;;;8.16;44.71;95302.09;5074821;28;20193;-73
2023/04/28 07:03:54;;;;;;;5.78;4.18;;;;;;;8.24;44.35;95305.94;5074370;28;20635;-74
2023/04/28 07:06:22;;;;;;;3.95;3.53;;;;;;;8.32;44.45;95305.09;5074726;28;20200;-74
2023/04/28 07:08:52;;;;;;;4.75;3.47;;;;;;;8.40;44.30;95300.72;5075494;28;20620;-74
2023/04/28 07:11:20;;;;;;;4.75;4.13;;;;;;;8.49;44.20;95297.91;5074831;28;20625;-74
2023/04/28 07:13:50;;;;;;;4.45;3.35;;;;;;;8.50;43.41;95303.09;5075787;28;20200;-73
2023/04/28 07:16:21;;;;;;;5.90;3.80;;;;;;;8.48;43.61;95302.59;5076054;28;20197;-73
2023/04/28 07:18:51;;;;;;;4.93;2.92;;;;;;;8.48;43.85;95305.34;5075280;28;20244;-74
2023/04/28 07:21:22;;;;;;;4.70;3.13;;;;;;;8.55;44.08;95302.88;5077150;28;20177;-74
2023/04/28 07:23:55;;;;;;;4.00;3.30;;;;;;;8.60;43.42;95291.66;5074908;28;20287;-73
2023/04/28 07:26:27;;;;;;;3.47;2.70;;;;;;;8.59;43.59;95300.25;5074550;28;20377;-74
2023/04/28 07:28:58;;;;;;;4.38;3.10;;;;;;;8.67;44.47;95294.69;5074225;28;20232;-75
2023/04/28 07:31:25;;;;;;;4.05;3.65;;;;;;;8.76;44.01;95297.38;5074696;28;20288;-74
2023/04/28 07:33:57;;;;;;;3.13;2.83;;;;;;;8.77;42.05;95298.97;5073912;28;20254;-74
2023/04/28 07:36:27;;;;;;;3.50;3.20;;;;;;;8.76;42.01;95299.34;5074443;28;20200;-73
2023/04/28 07:38:55;;;;;;;3.50;2.88;;;;;;;8.76;42.24;95299.34;5074660;28;20263;-74
2023/04/28 07:41:23;;;;;;;4.50;3.65;;;;;;;8.84;42.60;95299.25;5074036;28;20197;-73
2023/04/28 07:43:51;;;;;;;4.25;2.80;;;;;;;9.03;44.31;95287.75;5074140;28;20207;-74
2023/04/28 07:46:20;;;;;;;5.43;3.50;;;;;;;9.15;42.69;95298.84;5074469;28;20197;-74
2023/04/28 07:48:48;;;;;;;3.95;3.25;;;;;;;9.20;42.01;95297.00;5074461;28;20197;-74
2023/04/28 07:51:17;;;;;;;3.20;2.50;;;;;;;9.25;42.05;95286.56;5073974;28;20204;-73
2023/04/28 07:53:45;;;;;;;2.83;2.63;;;;;;;9.36;44.07;95285.00;5073987;28;20238;-74
2023/04/28 07:56:13;;;;;;;3.28;2.88;;;;;;;9.54;44.46;95280.13;5074935;28;20204;-73
2023/04/28 07:58:41;;;;;;;4.10;3.08;;;;;;;9.65;43.35;95286.00;5074036;28;20239;-73
2023/04/28 08:01:10;;;;;;;3.22;3.00;;;;;;;9.75;42.52;95282.00;5074313;28;20267;-73
2023/04/28 08:03:38;;;;;;;4.15;3.13;;;;;;;9.77;40.68;95285.22;5107583;28;20233;-73
2023/04/28 08:06:07;;;;;;;4.43;3.15;;;;;;;9.75;40.43;95288.31;5074472;28;20212;-74
2023/04/28 08:08:40;;;;;;;4.07;3.20;;;;;;;9.83;40.17;95289.34;5076233;28;20193;-73
2023/04/28 08:11:08;;;;;;;3.75;2.60;;;;;;;9.85;42.63;95284.31;5057845;28;20205;-74
2023/04/28 08:13:37;;;;;;;3.85;2.83;;;;;;;10.00;41.41;95285.59;5076051;28;20200;-74
2023/04/28 08:16:05;;;;;;;4.78;3.10;;;;;;;10.09;39.80;95283.50;5075196;28;20277;-73
2023/04/28 08:18:35;;;;;;;3.88;3.15;;;;;;;10.12;39.44;95291.09;5074700;28;20209;-74
2023/04/28 08:21:04;;;;;;;2.60;2.40;;;;;;;10.16;41.26;95274.66;5076650;28;20185;-77
2023/04/28 08:23:34;;;;;;;3.10;2.40;;;;;;;10.29;40.59;95287.34;5074961;28;20200;-69
2023/04/28 08:26:07;;;;;;;4.20;3.38;;;;;;;10.40;39.58;95290.44;5075027;28;20205;-69
2023/04/28 08:28:43;;;;;;;3.78;3.05;;;;;;;10.44;38.92;95289.38;5075730;28;20601;-69
2023/04/28 08:31:11;;;;;;;5.63;3.60;;;;;;;10.50;39.11;95276.97;5075918;28;20272;-69
2023/04/28 08:33:39;;;;;;;3.67;2.50;;;;;;;10.53;37.78;95268.00;5073827;28;20621;-69
2023/04/28 08:36:11;;;;;;;3.25;2.60;;;;;;;10.47;38.26;95283.19;5074668;28;20234;-69
2023/04/28 08:38:39;;;;;;;2.90;2.70;;;;;;;10.51;38.86;95270.28;5074095;28;20208;-69
2023/04/28 08:41:08;;;;;;;4.72;2.95;;;;;;;10.69;38.47;95273.59;5074156;28;20284;-69
2023/04/28 08:43:39;;;;;;;3.08;2.80;;;;;;;10.81;37.94;95276.31;5074220;28;20201;-69
2023/04/28 08:46:07;;;;;;;3.05;2.40;;;;;;;10.93;39.33;95275.50;5078470;28;20196;-69
2023/04/28 08:48:40;;;;;;;4.20;2.97;;;;;;;11.12;39.50;95271.28;5078854;28;20274;-69
2023/04/28 08:51:08;;;;;;;2.90;2.55;;;;;;;11.27;38.76;95270.53;5078818;28;20185;-69
2023/04/28 08:53:41;;;;;;;4.35;2.80;;;;;;;11.33;36.70;95272.69;5111370;28;20201;-69
2023/04/28 08:56:12;;;;;;;3.50;2.72;;;;;;;11.37;37.36;95264.50;5077223;28;20208;-69
2023/04/28 08:58:41;;;;;;;2.33;2.13;;;;;;;11.57;38.51;95259.88;5110951;28;20229;-69
2023/04/28 09:01:09;;;;;;;4.00;2.47;;;;;;;11.67;40.76;95256.59;5077186;28;20201;-69
2023/04/28 09:03:36;;;;;;;3.08;2.35;;;;;;;11.79;38.57;95256.50;5077555;28;20186;-70
2023/04/28 09:06:07;;;;;;;2.30;2.10;;;;;;;11.70;37.31;95250.38;5077562;28;20193;-70
2023/04/28 09:09:13;;;;;;;2.35;2.20;;;;;;;11.76;38.07;95261.94;5078527;28;20185;-69
2023/04/28 09:12:19;;;;;;;2.97;2.70;;;;;;;11.94;37.31;95245.84;5077468;28;20205;-69
2023/04/28 09:15:24;;;;;;;4.55;2.60;;;;;;;12.12;37.77;95241.53;5077509;28;20200;-69
2023/04/28 09:18:31;;;;;;;3.67;2.83;;;;;;;12.33;36.82;95235.72;5077887;28;20200;-69
2023/04/28 09:21:37;;;;;;;2.80;2.45;;;;;;;12.42;38.12;95238.31;5077146;28;20213;-69
2023/04/28 09:24:43;;;;;;;5.53;2.88;;;;;;;12.60;36.75;95235.91;5077304;28;20208;-69
2023/04/28 09:27:47;;;;;;;4.28;2.78;;;;;;;12.82;37.92;95234.41;5078102;28;20203;-69
2023/04/28 09:30:53;;;;;;;2.50;2.17;;;;;;;12.89;36.63;95238.16;5077281;28;20200;-69
2023/04/28 09:33:58;;;;;;;3.47;2.30;;;;;;;12.80;37.69;95232.00;5076956;28;20204;-69
2023/04/28 09:37:03;;;;;;;3.03;2.50;;;;;;;12.85;36.38;95217.06;5078082;28;20219;-69
2023/04/28 09:40:09;;;;;;;2.55;2.20;;;;;;;13.04;36.34;95227.38;5077049;28;20213;-69
2023/04/28 09:43:14;;;;;;;2.85;2.40;;;;;;;13.15;34.28;95217.31;5076385;28;20205;-69
2023/04/28 09:46:19;;;;;;;3.58;2.47;;;;;;;13.32;35.09;95211.31;5077727;28;20197;-69
2023/04/28 09:49:25;;;;;;;3.90;2.80;;;;;;;13.37;35.08;95207.47;5077109;28;20211;-69
2023/04/28 09:52:31;;;;;;;2.33;1.90;;;;;;;13.56;37.05;95206.63;5076434;28;20204;-69
2023/04/28 09:55:36;;;;;;;3.58;2.28;;;;;;;13.77;34.14;95207.00;5077391;28;20237;-69
2023/04/28 09:58:42;;;;;;;2.65;2.38;;;;;;;13.82;32.52;95200.31;5076511;28;20290;-69
2023/04/28 10:01:46;;;;;;;2.55;2.20;;;;;;;13.71;34.70;95189.06;5077382;28;20307;-69
2023/04/28 10:04:51;;;;;;;2.95;2.72;;;;;;;13.96;34.61;95181.16;5077512;28;20185;-69
2023/04/28 10:07:59;;;;;;;2.85;2.30;;;;;;;14.11;34.73;95177.44;5076519;28;20325;-70
2023/04/28 10:10:31;;;;;;;2.40;2.20;;;;;;;14.24;34.08;95183.56;5077223;28;20280;-69
2023/04/28 10:13:00;;;;;;;4.38;2.67;;;;;;;14.47;36.54;95174.38;5077344;28;20272;-70
2023/04/28 10:15:28;;;;;;;2.42;2.20;;;;;;;14.61;33.00;95174.59;5076245;28;20193;-70
2023/04/28 10:17:56;;;;;;;2.42;2.08;;;;;;;14.51;34.17;95181.59;5075083;28;20213;-69
2023/04/28 10:20:27;;;;;;;3.47;2.63;;;;;;;14.57;33.45;95174.56;5075836;28;20223;-70
2023/04/28 10:23:02;;;;;;;3.22;2.30;;;;;;;14.59;34.04;95177.75;5076079;28;20270;-69
2023/04/28 10:25:39;;;;;;;2.85;2.05;;;;;;;14.52;31.54;95174.06;5059689;28;20203;-69
2023/04/28 10:28:09;;;;;;;2.35;2.10;;;;;;;14.57;33.11;95166.22;5076361;28;20632;-69
2023/04/28 10:30:40;;;;;;;3.20;2.38;;;;;;;14.80;32.01;95165.31;5075307;28;20223;-70
2023/04/28 10:33:28;;;;;;;3.10;2.50;;;;;;;15.00;30.81;95165.97;5076716;28;20215;-69
2023/04/28 10:35:56;;;;;;;3.25;1.90;;;;;;;15.03;31.35;95154.91;5075583;28;20197;-70
2023/04/28 10:38:28;;;;;;;3.35;2.20;;;;;;;15.18;32.72;95155.88;5059026;28;20204;-69
2023/04/28 10:41:02;;;;;;;2.13;1.60;;;;;;;15.33;32.02;95152.03;5075269;28;20216;-69
2023/04/28 10:43:40;;;;;;;2.65;2.25;;;;;;;15.34;31.66;95156.41;5075955;28;20521;-69
2023/04/28 10:46:13;;;;;;;2.55;2.05;;;;;;;15.43;30.48;95144.19;5076186;28;20217;-69
2023/04/28 10:49:01;;;;;;;4.38;2.30;;;;;;;15.67;32.07;95145.63;5075683;28;20633;-69
2023/04/28 10:51:47;;;;;;;3.15;2.00;;;;;;;15.70;29.78;95136.53;5073637;28;20209;-69
2023/04/28 10:54:27;;;;;;;2.20;2.00;;;;;;;15.72;29.66;95137.72;5076622;28;20201;-70
2023/04/28 10:57:31;;;;;;;2.42;1.95;;;;;;;15.83;30.47;95133.06;5076419;28;20193;-69
2023/04/28 11:00:32;;;;;;;2.03;1.80;;;;;;;15.63;31.79;95124.13;5036951;28;20202;-69
2023/04/28 11:03:00;;;;;;;2.33;2.03;;;;;;;15.74;33.04;95123.47;5036770;28;20225;-71
2023/04/28 11:05:30;;;;;;;2.30;2.10;;;;;;;15.87;33.91;95120.00;5035750;28;20194;-69
2023/04/28 11:08:34;;;;;;;3.78;2.67;;;;;;;16.02;32.44;95118.13;5034944;28;20626;-69
2023/04/28 11:11:21;;;;;;;4.28;2.70;;;;;;;16.40;30.34;95129.06;5012274;28;20192;-69
2023/04/28 11:13:49;;;;;;;4.18;2.70;;;;;;;16.56;28.35;95124.81;4996170;28;20246;-69
2023/04/28 11:16:21;;;;;;;3.65;2.28;;;;;;;16.68;28.83;95120.06;4995607;28;20551;-70
2023/04/28 11:19:02;;;;;;;2.97;2.08;;;;;;;16.67;27.83;95124.84;4994968;28;20262;-69
2023/04/28 11:21:31;;;;;;;2.38;2.17;;;;;;;16.60;28.96;95116.47;4996028;28;20281;-69
2023/04/28 11:23:59;;;;;;;2.28;2.03;;;;;;;16.43;28.11;95114.38;4995510;28;20192;-68
2023/04/28 11:26:28;;;;;;;2.25;1.75;;;;;;;16.42;30.19;95116.38;4995699;28;20294;-68
2023/04/28 11:28:57;;;;;;;3.33;2.00;;;;;;;16.52;27.78;95114.81;4995552;28;20303;-69
2023/04/28 11:31:27;;;;;;;2.65;2.22;;;;;;;16.41;30.01;95111.19;4995217;28;20191;-69
2023/04/28 11:33:59;;;;;;;2.33;2.13;;;;;;;16.19;30.55;95107.47;4979257;28;20235;-69
2023/04/28 11:36:32;;;;;;;4.00;2.03;;;;;;;16.23;32.47;95091.59;4995129;28;20275;-69
2023/04/28 11:39:00;;;;;;;2.10;1.90;;;;;;;16.39;31.10;95085.72;4978356;28;20596;-69
2023/04/28 11:41:29;;;;;;;2.55;2.13;;;;;;;16.42;29.08;95096.09;5008822;28;20249;-69
2023/04/28 11:43:55;;;;;;;2.67;2.28;;;;;;;16.42;30.97;95094.09;5035128;28;20202;-69
2023/04/28 11:46:29;;;;;;;2.45;2.17;;;;;;;16.47;31.08;95088.16;5036308;28;20186;-69
2023/04/28 11:49:04;;;;;;;3.25;2.30;;;;;;;16.56;31.26;95091.38;5035565;28;20202;-69
2023/04/28 11:51:38;;;;;;;3.17;1.90;;;;;;;16.63;30.52;95079.50;5034925;28;20603;-69
2023/04/28 11:54:10;;;;;;;3.00;2.00;;;;;;;16.67;29.00;95077.50;5035345;28;20257;-69
2023/04/28 11:56:39;;;;;;;2.00;1.90;;;;;;;16.85;29.64;95091.53;5035480;28;20194;-69
2023/04/28 11:59:09;;;;;;;3.58;2.20;;;;;;;16.93;28.68;95075.63;5067762;28;20298;-69
2023/04/28 12:01:46;;;;;;;2.35;2.05;;;;;;;17.02;29.34;95076.84;5075194;28;20244;-69
2023/04/28 12:04:26;;;;;;;2.35;1.70;;;;;;;17.14;28.17;95072.91;5075654;28;20600;-69